Time;durP1;ratioP1;P1;durP2;ratioP2;P2;SDS_P1;SDS_P2;PMS_P1;PMS_P2;Temp;Humidity;BMP_temperature;BMP_pressure;BME280_temperature;BME280_humidity;BME280_pressure;Samples;Min_cycle;Max_cycle;Signal;HPM_P1;HPM_P2
2023/12/18 00:01:39;;;;;;;4.57;1.58;;;11.20;69.10;;;;;;5038436;28;20029;-87
2023/12/18 00:04:07;;;;;;;10.35;2.30;;;11.20;69.10;;;;;;5058000;28;20361;-88
2023/12/18 00:06:36;;;;;;;4.13;1.50;;;11.20;69.20;;;;;;5029519;28;20038;-89
2023/12/18 00:09:02;;;;;;;7.57;2.25;;;11.10;69.10;;;;;;5034923;28;20666;-87
2023/12/18 00:11:28;;;;;;;7.63;1.92;;;11.10;69.10;;;;;;5036187;28;20029;-90
2023/12/18 00:13:57;;;;;;;5.95;2.22;;;11.10;69.20;;;;;;5040283;28;20083;-87
2023/12/18 00:16:23;;;;;;;3.67;1.70;;;11.10;69.20;;;;;;5037562;28;20038;-88
2023/12/18 00:18:49;;;;;;;5.10;2.55;;;11.10;69.20;;;;;;5028956;28;20237;-88
2023/12/18 00:21:15;;;;;;;4.05;1.80;;;11.10;69.30;;;;;;5038917;28;20083;-88
2023/12/18 00:23:41;;;;;;;5.72;1.65;;;11.10;69.30;;;;;;5037585;28;20052;-88
2023/12/18 00:26:09;;;;;;;5.85;1.80;;;11.10;69.40;;;;;;5054528;28;20048;-89
2023/12/18 00:28:37;;;;;;;6.38;2.35;;;11.10;69.40;;;;;;5033117;28;20033;-89
2023/12/18 00:31:03;;;;;;;6.82;1.98;;;11.10;69.50;;;;;;5034417;28;20036;-88
2023/12/18 00:33:29;;;;;;;7.90;2.95;;;11.10;69.50;;;;;;5040575;28;20033;-89
2023/12/18 00:35:56;;;;;;;6.53;1.88;;;11.10;69.50;;;;;;5040969;28;20029;-86
2023/12/18 00:38:22;;;;;;;6.00;1.85;;;11.00;69.40;;;;;;5024418;28;20501;-88
2023/12/18 00:40:48;;;;;;;3.83;1.60;;;11.00;69.40;;;;;;5036950;28;20044;-88
2023/12/18 00:43:15;;;;;;;7.70;2.42;;;11.10;69.60;;;;;;5040500;28;20024;-90
2023/12/18 00:45:42;;;;;;;9.30;1.98;;;11.00;69.40;;;;;;5021854;28;20040;-88
2023/12/18 00:48:10;;;;;;;5.97;1.83;;;11.00;69.50;;;;;;5001029;28;20093;-89
2023/12/18 00:50:36;;;;;;;5.20;2.00;;;11.10;69.70;;;;;;5000604;28;20034;-89
2023/12/18 00:53:02;;;;;;;5.55;1.70;;;11.10;69.90;;;;;;5004680;28;20076;-85
2023/12/18 00:55:28;;;;;;;5.30;1.73;;;11.00;69.60;;;;;;5004554;28;20151;-86
2023/12/18 00:57:55;;;;;;;8.80;1.77;;;11.00;69.60;;;;;;4993326;28;20063;-86
2023/12/18 01:00:21;;;;;;;5.28;2.03;;;11.00;69.70;;;;;;4998079;28;20113;-87
2023/12/18 01:02:47;;;;;;;5.97;1.40;;;11.10;69.90;;;;;;5001669;28;20065;-86
2023/12/18 01:05:14;;;;;;;4.78;1.50;;;11.00;69.70;;;;;;5015978;28;20042;-86
2023/12/18 01:07:43;;;;;;;5.78;1.80;;;11.10;70.00;;;;;;4998083;28;20030;-86
2023/12/18 01:10:12;;;;;;;6.35;2.47;;;11.10;70.00;;;;;;4998195;28;20144;-86
2023/12/18 01:12:38;;;;;;;7.72;2.03;;;11.10;70.00;;;;;;5021133;28;20065;-85
2023/12/18 01:15:04;;;;;;;6.03;1.65;;;11.10;70.00;;;;;;5019471;28;20022;-84
2023/12/18 01:17:30;;;;;;;7.03;1.60;;;11.10;70.00;;;;;;5021599;28;20029;-87
2023/12/18 01:19:56;;;;;;;6.85;1.75;;;11.10;70.00;;;;;;5015167;28;20068;-86
2023/12/18 01:22:22;;;;;;;4.93;1.40;;;11.10;70.00;;;;;;5016251;28;20118;-87
2023/12/18 01:24:48;;;;;;;4.47;1.73;;;11.10;70.00;;;;;;5013991;28;20046;-85
2023/12/18 01:27:14;;;;;;;7.85;1.65;;;11.10;70.10;;;;;;5009295;28;20030;-86
2023/12/18 01:29:40;;;;;;;4.18;1.85;;;11.10;70.10;;;;;;4996857;28;20034;-87
2023/12/18 01:32:08;;;;;;;4.82;1.80;;;11.10;70.10;;;;;;4999004;28;20626;-89
2023/12/18 01:34:35;;;;;;;6.82;1.90;;;11.10;70.10;;;;;;4997795;28;20034;-86
2023/12/18 01:37:03;;;;;;;6.63;1.98;;;11.10;70.10;;;;;;4982744;28;20038;-89
2023/12/18 01:39:30;;;;;;;6.07;1.67;;;11.20;70.20;;;;;;4997050;28;20469;-88
2023/12/18 01:41:56;;;;;;;9.00;2.25;;;11.20;70.30;;;;;;5003358;28;20034;-92
2023/12/18 01:44:24;;;;;;;6.18;1.55;;;11.20;70.30;;;;;;4991817;28;20038;-89
2023/12/18 01:46:50;;;;;;;6.50;1.50;;;11.20;70.30;;;;;;4996703;28;20033;-90
2023/12/18 01:49:16;;;;;;;5.18;1.52;;;11.10;70.10;;;;;;5052458;28;20426;-88
2023/12/18 01:51:43;;;;;;;8.93;2.13;;;11.20;70.30;;;;;;5038338;28;20036;-88
2023/12/18 01:54:10;;;;;;;5.82;1.63;;;11.20;70.30;;;;;;5045277;28;20417;-88
2023/12/18 01:56:37;;;;;;;3.75;1.42;;;11.20;70.30;;;;;;5034367;28;20401;-88
2023/12/18 01:59:05;;;;;;;4.25;1.58;;;11.20;70.30;;;;;;5035310;28;20114;-88
2023/12/18 02:01:31;;;;;;;4.35;1.33;;;11.20;70.30;;;;;;5022895;28;20029;-88
2023/12/18 02:03:58;;;;;;;8.32;1.85;;;11.20;70.40;;;;;;5031139;28;20292;-87
2023/12/18 02:06:25;;;;;;;4.80;1.27;;;11.20;70.40;;;;;;5033020;28;20035;-89
2023/12/18 02:08:51;;;;;;;5.07;1.48;;;11.20;70.40;;;;;;5030744;28;20602;-88
2023/12/18 02:11:17;;;;;;;5.88;1.70;;;11.20;70.40;;;;;;5039112;28;20020;-87
2023/12/18 02:13:43;;;;;;;4.43;1.52;;;11.20;70.40;;;;;;5032088;28;20041;-86
2023/12/18 02:16:10;;;;;;;3.88;1.75;;;11.20;70.40;;;;;;5032172;28;20040;-85
2023/12/18 02:18:46;;;;;;;5.82;1.38;;;11.20;70.40;;;;;;5028493;28;20496;-88
2023/12/18 02:21:18;;;;;;;2.75;1.95;;;11.20;70.40;;;;;;5024140;28;20021;-88
2023/12/18 02:23:44;;;;;;;5.05;1.48;;;11.20;70.40;;;;;;5032786;28;20480;-89
2023/12/18 02:26:10;;;;;;;6.47;2.10;;;11.20;70.40;;;;;;5037540;28;20036;-87
2023/12/18 02:28:36;;;;;;;4.40;1.77;;;11.20;70.40;;;;;;5035060;28;20179;-87
2023/12/18 02:31:03;;;;;;;7.65;2.17;;;11.20;70.40;;;;;;5038104;28;20087;-86
2023/12/18 02:33:29;;;;;;;8.23;1.85;;;11.20;70.40;;;;;;5038555;28;20037;-87
2023/12/18 02:35:56;;;;;;;5.95;1.67;;;11.20;70.50;;;;;;5030117;28;20029;-86
2023/12/18 02:38:23;;;;;;;7.80;1.63;;;11.20;70.50;;;;;;5041291;28;20029;-87
2023/12/18 02:40:50;;;;;;;3.67;0.85;;;11.20;70.50;;;;;;5024547;28;20423;-86
2023/12/18 02:43:16;;;;;;;6.30;2.08;;;11.20;70.50;;;;;;5038676;28;20083;-87
2023/12/18 02:45:42;;;;;;;3.65;1.00;;;11.20;70.50;;;;;;5020771;28;20056;-87
2023/12/18 02:48:07;;;;;;;6.53;1.80;;;11.20;70.50;;;;;;5037085;28;20051;-88
2023/12/18 02:50:33;;;;;;;6.10;1.80;;;11.20;70.50;;;;;;5027374;28;20048;-88
2023/12/18 02:52:59;;;;;;;4.72;1.40;;;11.20;70.50;;;;;;5044181;28;20107;-90
2023/12/18 02:55:26;;;;;;;4.78;1.80;;;11.20;70.50;;;;;;5029237;28;20025;-89
2023/12/18 02:57:52;;;;;;;4.13;1.40;;;11.30;70.60;;;;;;5025315;28;20037;-89
2023/12/18 03:00:20;;;;;;;5.78;1.48;;;11.20;70.50;;;;;;5023076;28;20079;-88
2023/12/18 03:02:46;;;;;;;4.55;1.70;;;11.30;70.60;;;;;;5026450;28;20160;-88
2023/12/18 03:05:13;;;;;;;6.47;1.77;;;11.20;70.50;;;;;;5034403;28;20160;-88
2023/12/18 03:07:40;;;;;;;4.97;1.40;;;11.20;70.40;;;;;;5039203;28;20390;-91
2023/12/18 03:10:06;;;;;;;5.50;1.52;;;11.30;70.60;;;;;;5050669;28;20108;-90
2023/12/18 03:12:32;;;;;;;8.65;1.92;;;11.20;70.40;;;;;;5038204;28;20039;-92
2023/12/18 03:14:59;;;;;;;5.03;1.35;;;11.30;70.60;;;;;;5037283;28;20678;-88
2023/12/18 03:17:24;;;;;;;3.20;1.20;;;11.30;71.10;;;;;;5038737;28;20036;-88
2023/12/18 03:19:52;;;;;;;7.55;1.63;;;11.30;70.50;;;;;;5039738;28;20041;-88
2023/12/18 03:22:17;;;;;;;8.85;2.30;;;11.40;70.70;;;;;;5058211;28;20071;-88
2023/12/18 03:24:43;;;;;;;4.57;1.60;;;11.30;70.50;;;;;;5026233;28;20053;-87
2023/12/18 03:27:10;;;;;;;4.05;1.60;;;11.30;70.50;;;;;;5040861;28;20561;-87
2023/12/18 03:29:37;;;;;;;6.13;1.35;;;11.40;70.60;;;;;;5038233;28;20555;-85
2023/12/18 03:32:04;;;;;;;4.90;1.75;;;11.30;70.40;;;;;;5051835;28;20036;-88
2023/12/18 03:34:31;;;;;;;6.00;1.70;;;11.30;70.40;;;;;;5040620;28;20033;-88
2023/12/18 03:36:57;;;;;;;5.45;1.80;;;11.40;70.50;;;;;;5035233;28;20124;-84
2023/12/18 03:39:23;;;;;;;3.13;1.27;;;11.40;70.50;;;;;;5038316;28;20036;-86
2023/12/18 03:41:49;;;;;;;7.57;2.47;;;11.40;70.50;;;;;;5051003;28;20041;-84
2023/12/18 03:44:15;;;;;;;5.90;1.45;;;11.40;71.00;;;;;;5045108;28;20873;-86
2023/12/18 03:46:42;;;;;;;3.95;1.30;;;11.40;70.50;;;;;;5022745;28;20044;-84
2023/12/18 03:49:08;;;;;;;4.70;1.20;;;11.40;70.50;;;;;;5052819;28;20472;-86
2023/12/18 03:51:34;;;;;;;3.33;1.30;;;11.40;70.50;;;;;;5038434;28;20035;-86
2023/12/18 03:54:00;;;;;;;4.80;1.42;;;11.40;70.50;;;;;;5038554;28;20083;-86
2023/12/18 03:56:27;;;;;;;6.97;1.23;;;11.40;70.50;;;;;;5030595;28;20362;-86
2023/12/18 03:58:53;;;;;;;6.55;1.48;;;11.40;70.50;;;;;;5035371;28;21017;-84
2023/12/18 04:01:19;;;;;;;5.25;1.23;;;11.50;70.60;;;;;;5041330;28;20048;-85
2023/12/18 04:03:45;;;;;;;5.93;1.98;;;11.50;70.60;;;;;;5035711;28;20033;-86
2023/12/18 04:06:11;;;;;;;4.35;1.45;;;11.50;70.60;;;;;;5053513;28;20033;-87
2023/12/18 04:08:39;;;;;;;4.35;1.30;;;11.50;70.60;;;;;;5022426;28;20413;-84
2023/12/18 04:11:16;;;;;;;4.63;1.40;;;11.60;70.70;;;;;;5058466;28;20071;-86
2023/12/18 04:13:43;;;;;;;4.30;1.23;;;11.60;70.70;;;;;;5046243;28;20095;-88
2023/12/18 04:16:09;;;;;;;7.75;1.85;;;11.60;70.70;;;;;;5035727;28;20421;-88
2023/12/18 04:18:36;;;;;;;4.57;0.85;;;11.60;70.60;;;;;;5043995;28;20036;-86
2023/12/18 04:21:02;;;;;;;5.93;2.75;;;11.60;70.60;;;;;;5060489;28;20029;-87
2023/12/18 04:23:28;;;;;;;7.03;1.30;;;11.60;70.60;;;;;;5044844;28;20088;-86
2023/12/18 04:25:54;;;;;;;5.78;1.50;;;11.60;70.60;;;;;;5043954;28;20079;-85
2023/12/18 04:28:20;;;;;;;3.95;1.08;;;11.60;70.50;;;;;;5045977;28;20217;-84
2023/12/18 04:30:46;;;;;;;5.85;1.42;;;11.60;70.50;;;;;;5035900;28;20108;-85
2023/12/18 04:33:12;;;;;;;8.25;1.70;;;11.60;70.50;;;;;;5058469;28;20034;-85
2023/12/18 04:35:38;;;;;;;6.40;2.13;;;11.70;70.60;;;;;;5056968;28;20033;-86
2023/12/18 04:38:04;;;;;;;3.58;1.40;;;11.70;70.60;;;;;;5058773;28;20026;-84
2023/12/18 04:40:30;;;;;;;5.32;1.30;;;11.70;70.50;;;;;;5041689;28;20033;-85
2023/12/18 04:42:56;;;;;;;5.10;1.75;;;11.70;70.50;;;;;;5040687;28;20082;-86
2023/12/18 04:45:22;;;;;;;3.45;1.63;;;11.70;70.50;;;;;;5054329;28;20033;-86
2023/12/18 04:47:48;;;;;;;3.95;1.30;;;11.70;70.50;;;;;;5024303;28;20195;-83
2023/12/18 04:50:15;;;;;;;2.65;1.13;;;11.70;70.40;;;;;;5042370;28;20100;-91
2023/12/18 04:52:41;;;;;;;6.10;1.90;;;11.70;70.40;;;;;;5021454;28;20052;-88
2023/12/18 04:55:08;;;;;;;4.80;1.30;;;11.70;70.40;;;;;;5040353;28;20048;-88
2023/12/18 04:57:36;;;;;;;4.30;1.10;;;11.70;70.30;;;;;;5045069;28;20030;-88
2023/12/18 05:00:03;;;;;;;5.60;1.70;;;11.70;70.90;;;;;;5058315;28;20037;-88
2023/12/18 05:02:30;;;;;;;4.93;1.10;;;11.70;70.30;;;;;;5044285;28;20392;-87
2023/12/18 05:04:56;;;;;;;5.40;1.38;;;11.70;70.30;;;;;;5040405;28;20041;-88
2023/12/18 05:07:25;;;;;;;4.43;1.17;;;11.70;70.30;;;;;;5056495;28;20025;-86
2023/12/18 05:09:52;;;;;;;7.30;1.33;;;11.70;70.30;;;;;;5058544;28;20713;-91
2023/12/18 05:12:18;;;;;;;5.28;2.08;;;11.70;70.30;;;;;;5040049;28;20053;-88
2023/12/18 05:14:44;;;;;;;8.13;2.97;;;11.70;70.20;;;;;;5026307;28;20091;-81
2023/12/18 05:17:10;;;;;;;5.97;1.30;;;11.70;70.20;;;;;;5047173;28;20034;-81
2023/12/18 05:19:36;;;;;;;3.92;1.00;;;11.80;70.40;;;;;;5046522;28;20087;-85
2023/12/18 05:22:02;;;;;;;5.75;1.85;;;11.70;70.20;;;;;;5049166;28;20044;-86
2023/12/18 05:24:28;;;;;;;6.47;1.25;;;11.70;70.10;;;;;;5043677;28;20048;-85
2023/12/18 05:26:54;;;;;;;7.35;1.95;;;11.70;70.10;;;;;;5043779;28;20146;-85
2023/12/18 05:29:20;;;;;;;4.75;1.48;;;11.70;70.10;;;;;;5038412;28;20044;-85
2023/12/18 05:31:46;;;;;;;7.93;1.52;;;11.80;70.30;;;;;;5058697;28;20109;-86
2023/12/18 05:34:12;;;;;;;5.93;1.58;;;11.70;70.00;;;;;;5050322;28;20056;-87
2023/12/18 05:36:39;;;;;;;3.70;1.27;;;11.70;70.00;;;;;;5038726;28;20042;-87
2023/12/18 05:39:06;;;;;;;5.68;1.27;;;11.80;70.10;;;;;;5043699;28;20104;-88
2023/12/18 05:41:33;;;;;;;6.00;1.48;;;11.80;70.10;;;;;;5041290;28;20033;-88
2023/12/18 05:44:03;;;;;;;7.53;1.88;;;11.80;70.10;;;;;;5036367;28;20060;-84
2023/12/18 05:46:30;;;;;;;4.38;1.30;;;11.80;70.10;;;;;;5042156;28;20151;-86
2023/12/18 05:49:04;;;;;;;4.65;1.27;;;11.70;69.90;;;;;;5033687;28;20065;-87
2023/12/18 05:51:34;;;;;;;4.63;0.90;;;11.80;70.10;;;;;;5023886;28;20104;-85
2023/12/18 05:54:01;;;;;;;5.03;1.10;;;11.80;70.10;;;;;;5036508;28;20033;-86
2023/12/18 05:56:30;;;;;;;5.82;2.05;;;11.80;70.00;;;;;;5041477;28;20085;-84
2023/12/18 05:58:57;;;;;;;4.13;1.25;;;11.80;70.00;;;;;;5028569;28;20086;-84
2023/12/18 06:01:26;;;;;;;5.57;1.30;;;11.80;70.00;;;;;;5037555;28;20028;-86
2023/12/18 06:03:54;;;;;;;5.55;1.02;;;11.80;70.00;;;;;;5019143;28;20029;-86
2023/12/18 06:06:20;;;;;;;5.05;1.10;;;11.80;70.00;;;;;;5030513;28;20575;-86
2023/12/18 06:08:47;;;;;;;4.22;1.23;;;11.80;70.00;;;;;;5048875;28;20041;-86
2023/12/18 06:11:17;;;;;;;7.05;1.25;;;11.80;70.00;;;;;;5039530;28;20176;-85
2023/12/18 06:13:46;;;;;;;7.68;1.63;;;11.80;70.00;;;;;;5032868;28;20102;-83
2023/12/18 06:16:12;;;;;;;7.28;1.92;;;11.80;69.90;;;;;;5048010;28;20500;-83
2023/12/18 06:18:38;;;;;;;2.92;1.20;;;11.80;70.00;;;;;;5019630;28;20029;-82
2023/12/18 06:21:05;;;;;;;4.22;1.33;;;11.80;70.00;;;;;;5034505;28;20356;-84
2023/12/18 06:23:32;;;;;;;4.57;1.35;;;11.80;69.90;;;;;;5018469;28;20132;-85
2023/12/18 06:25:59;;;;;;;3.45;1.42;;;11.80;69.90;;;;;;5051425;28;20064;-85
2023/12/18 06:28:30;;;;;;;8.90;2.42;;;11.80;69.90;;;;;;5034547;28;20148;-85
2023/12/18 06:30:58;;;;;;;3.60;1.40;;;11.80;69.90;;;;;;5025883;28;20462;-82
2023/12/18 06:33:24;;;;;;;5.20;1.65;;;11.80;69.80;;;;;;5036001;28;20029;-84
2023/12/18 06:35:50;;;;;;;6.03;1.40;;;11.80;69.80;;;;;;5038421;28;20270;-83
2023/12/18 06:38:16;;;;;;;5.97;1.55;;;11.80;69.80;;;;;;5046573;28;20062;-96
2023/12/18 06:40:42;;;;;;;12.68;1.58;;;11.80;69.80;;;;;;5062759;28;20048;-91
2023/12/18 06:43:09;;;;;;;9.88;2.20;;;11.80;69.90;;;;;;5056161;28;20024;-95
2023/12/18 06:45:35;;;;;;;7.40;1.95;;;11.80;70.40;;;;;;5046465;28;20459;-90
2023/12/18 06:48:02;;;;;;;6.22;1.38;;;11.90;71.20;;;;;;5037575;28;20071;-84
2023/12/18 06:50:29;;;;;;;31.35;7.47;;;12.00;71.70;;;;;;5038393;28;20032;-83
2023/12/18 06:52:55;;;;;;;34.45;6.13;;;12.10;72.10;;;;;;5041833;28;20029;-90
2023/12/18 06:55:23;;;;;;;22.08;6.35;;;12.20;72.50;;;;;;5048949;28;20055;-85
2023/12/18 06:57:49;;;;;;;21.83;5.05;;;12.30;73.10;;;;;;5039689;28;20029;-86
2023/12/18 07:00:15;;;;;;;14.70;3.70;;;12.40;73.70;;;;;;5027187;28;20112;-87
2023/12/18 07:02:41;;;;;;;18.08;5.30;;;12.50;74.20;;;;;;5050434;28;20147;-85
2023/12/18 07:05:07;;;;;;;16.52;3.40;;;12.70;74.70;;;;;;5022033;28;20038;-85
2023/12/18 07:07:34;;;;;;;13.55;3.55;;;12.80;75.00;;;;;;5048598;28;20055;-86
2023/12/18 07:10:00;;;;;;;13.20;2.42;;;12.90;75.20;;;;;;5049660;28;20513;-87
2023/12/18 07:12:26;;;;;;;11.77;2.58;;;13.00;75.30;;;;;;5044176;28;20024;-86
2023/12/18 07:14:53;;;;;;;7.10;2.20;;;13.00;75.10;;;;;;5070686;28;20043;-85
2023/12/18 07:17:19;;;;;;;8.90;2.50;;;13.00;75.00;;;;;;5036356;28;20029;-87
2023/12/18 07:19:46;;;;;;;13.30;2.88;;;13.00;75.10;;;;;;5038465;28;20056;-86
2023/12/18 07:22:12;;;;;;;10.05;2.38;;;13.00;75.30;;;;;;5072123;28;20017;-86
2023/12/18 07:24:38;;;;;;;8.27;2.38;;;13.10;75.50;;;;;;5048103;28;20049;-84
2023/12/18 07:27:05;;;;;;;9.25;1.80;;;13.10;75.50;;;;;;5058700;28;20021;-86
2023/12/18 07:29:31;;;;;;;7.88;2.05;;;13.10;75.40;;;;;;5029775;28;20029;-86
2023/12/18 07:31:57;;;;;;;13.68;2.20;;;13.20;75.50;;;;;;5039956;28;20381;-85
2023/12/18 07:34:23;;;;;;;6.97;1.83;;;13.20;75.40;;;;;;5043855;28;20112;-86
2023/12/18 07:36:49;;;;;;;4.60;1.52;;;13.10;75.70;;;;;;5048786;28;20850;-87
2023/12/18 07:39:15;;;;;;;7.75;2.05;;;13.10;75.10;;;;;;5015989;28;20069;-85
2023/12/18 07:41:41;;;;;;;6.38;1.65;;;13.10;75.00;;;;;;5024559;28;20473;-86
2023/12/18 07:44:08;;;;;;;10.32;1.80;;;13.10;75.00;;;;;;5031252;28;20122;-88
2023/12/18 07:46:36;;;;;;;7.15;2.20;;;13.10;75.00;;;;;;5049076;28;20206;-84
2023/12/18 07:49:02;;;;;;;6.72;2.45;;;13.10;75.00;;;;;;5054531;28;20033;-89
2023/12/18 07:51:28;;;;;;;5.45;1.70;;;13.10;74.90;;;;;;5032407;28;20029;-87
2023/12/18 07:53:54;;;;;;;8.45;1.77;;;13.00;74.70;;;;;;5032667;28;20103;-87
2023/12/18 07:56:20;;;;;;;5.78;1.95;;;13.10;74.80;;;;;;5052607;28;20040;-88
2023/12/18 07:58:46;;;;;;;3.53;1.38;;;13.00;74.60;;;;;;5020438;28;20060;-86
2023/12/18 08:01:16;;;;;;;4.35;1.50;;;13.00;74.50;;;;;;5034382;28;20017;-85
2023/12/18 08:03:42;;;;;;;5.55;1.30;;;13.00;74.40;;;;;;5023407;28;20418;-86
2023/12/18 08:06:09;;;;;;;4.95;1.95;;;13.00;74.30;;;;;;5038559;28;20033;-86
2023/12/18 08:08:35;;;;;;;5.45;1.33;;;13.10;74.40;;;;;;5010454;28;20025;-86
2023/12/18 08:11:01;;;;;;;10.88;1.92;;;13.00;74.20;;;;;;5043113;28;20196;-86
2023/12/18 08:13:28;;;;;;;6.22;1.52;;;13.00;74.10;;;;;;5022957;28;20469;-87
2023/12/18 08:15:54;;;;;;;5.50;2.17;;;13.00;74.00;;;;;;5024644;28;20183;-84
2023/12/18 08:18:20;;;;;;;5.30;1.02;;;13.00;73.90;;;;;;5020600;28;20403;-86
2023/12/18 08:20:46;;;;;;;5.05;1.13;;;13.00;73.80;;;;;;5040478;28;20029;-83
2023/12/18 08:23:15;;;;;;;5.85;1.05;;;13.00;73.70;;;;;;5022645;28;20029;-85
2023/12/18 08:25:41;;;;;;;6.60;1.20;;;13.00;73.60;;;;;;5023419;28;20037;-86
2023/12/18 08:28:07;;;;;;;5.65;1.10;;;13.00;73.50;;;;;;5044719;28;20029;-82
2023/12/18 08:30:33;;;;;;;4.38;1.27;;;13.00;73.50;;;;;;5036937;28;20045;-80
2023/12/18 08:33:00;;;;;;;5.97;1.20;;;13.00;73.40;;;;;;5038655;28;20033;-85
2023/12/18 08:35:29;;;;;;;3.70;1.35;;;13.00;73.30;;;;;;5050106;28;20072;-88
2023/12/18 08:37:55;;;;;;;2.88;0.93;;;13.10;73.40;;;;;;5004444;28;20505;-86
2023/12/18 08:40:21;;;;;;;3.53;1.40;;;13.00;73.20;;;;;;5027952;28;20033;-86
2023/12/18 08:42:48;;;;;;;6.88;1.02;;;13.00;73.10;;;;;;5022692;28;20429;-87
2023/12/18 08:45:14;;;;;;;4.90;1.38;;;13.00;73.00;;;;;;5031388;28;20048;-87
2023/12/18 08:47:39;;;;;;;6.15;1.15;;;13.10;73.20;;;;;;5029781;28;20061;-86
2023/12/18 08:50:06;;;;;;;5.38;1.00;;;13.10;73.10;;;;;;5020513;28;20348;-85
2023/12/18 08:52:32;;;;;;;3.70;1.23;;;13.10;73.00;;;;;;5023771;28;20488;-88
2023/12/18 08:54:58;;;;;;;3.72;1.50;;;13.10;72.90;;;;;;5021500;28;20446;-85
2023/12/18 08:57:24;;;;;;;2.85;0.88;;;13.10;72.90;;;;;;5021598;28;20026;-88
2023/12/18 08:59:51;;;;;;;3.00;0.95;;;13.10;72.80;;;;;;5006140;28;20132;-87
2023/12/18 09:02:20;;;;;;;2.88;1.65;;;13.10;72.70;;;;;;5052701;28;20114;-88
2023/12/18 09:04:47;;;;;;;4.60;2.80;;;13.10;72.60;;;;;;5023679;28;20253;-88
2023/12/18 09:07:13;;;;;;;4.68;1.23;;;13.20;72.70;;;;;;5028244;28;20033;-88
2023/12/18 09:09:39;;;;;;;4.63;0.90;;;13.20;72.60;;;;;;5040129;28;20404;-87
2023/12/18 09:12:06;;;;;;;5.55;1.35;;;13.20;72.60;;;;;;5042821;28;20120;-88
2023/12/18 09:14:32;;;;;;;6.05;1.60;;;13.20;72.40;;;;;;5030681;28;20068;-86
2023/12/18 09:16:59;;;;;;;5.88;1.60;;;13.20;72.30;;;;;;5044392;28;20029;-89
2023/12/18 09:19:25;;;;;;;3.20;1.20;;;13.30;72.40;;;;;;5043065;28;20042;-88
2023/12/18 09:21:51;;;;;;;4.38;1.00;;;13.30;72.30;;;;;;5012614;28;20120;-88
2023/12/18 09:24:17;;;;;;;4.00;0.90;;;13.30;72.20;;;;;;5034209;28;20132;-87
2023/12/18 09:26:43;;;;;;;2.33;1.17;;;13.40;72.30;;;;;;5014077;28;20021;-87
2023/12/18 09:29:10;;;;;;;7.53;1.42;;;13.40;72.20;;;;;;5041785;28;20284;-87
2023/12/18 09:31:36;;;;;;;2.90;1.65;;;13.40;72.10;;;;;;5030546;28;20029;-86
2023/12/18 09:34:03;;;;;;;4.30;1.23;;;13.40;72.00;;;;;;5052739;28;20571;-87
2023/12/18 09:36:29;;;;;;;3.42;1.17;;;13.50;72.10;;;;;;5036645;28;20128;-89
2023/12/18 09:38:55;;;;;;;3.70;1.15;;;13.50;72.00;;;;;;5012446;28;20120;-89
2023/12/18 09:41:25;;;;;;;4.78;1.25;;;13.60;72.10;;;;;;5012529;28;20072;-86
2023/12/18 09:43:53;;;;;;;4.97;1.08;;;13.60;72.00;;;;;;5029908;28;20033;-88
2023/12/18 09:46:23;;;;;;;5.88;1.42;;;13.60;71.90;;;;;;5035053;28;20056;-88
2023/12/18 09:48:55;;;;;;;3.00;1.15;;;13.70;71.90;;;;;;5035726;28;20503;-84
2023/12/18 09:51:23;;;;;;;3.73;1.10;;;13.70;71.80;;;;;;5043076;28;20087;-83
2023/12/18 09:53:51;;;;;;;5.85;2.63;;;13.70;71.70;;;;;;5046580;28;20052;-84
2023/12/18 09:56:22;;;;;;;6.00;2.05;;;13.80;71.70;;;;;;5051097;28;20481;-89
2023/12/18 09:58:48;;;;;;;4.80;1.23;;;13.80;71.60;;;;;;5042956;28;20098;-89
2023/12/18 10:01:14;;;;;;;5.05;1.30;;;13.80;71.60;;;;;;5043442;28;20135;-88
2023/12/18 10:03:41;;;;;;;5.43;1.20;;;13.80;71.40;;;;;;5027984;28;20033;-88
2023/12/18 10:06:08;;;;;;;3.35;1.23;;;13.80;71.40;;;;;;5034847;28;20460;-88
2023/12/18 10:08:36;;;;;;;3.67;1.63;;;13.90;71.50;;;;;;5051007;28;20052;-86
2023/12/18 10:11:03;;;;;;;4.30;1.55;;;13.90;71.40;;;;;;5049842;28;20403;-89
2023/12/18 10:13:29;;;;;;;5.50;1.33;;;13.90;71.40;;;;;;5038668;28;20510;-84
2023/12/18 10:15:56;;;;;;;6.60;1.40;;;13.90;71.30;;;;;;5034107;28;20038;-85
2023/12/18 10:18:23;;;;;;;7.95;1.40;;;13.90;71.20;;;;;;5036688;28;20060;-86
2023/12/18 10:20:50;;;;;;;6.38;1.10;;;13.90;71.10;;;;;;5011717;28;20409;-86
2023/12/18 10:23:16;;;;;;;5.68;1.95;;;13.90;71.10;;;;;;5034788;28;20034;-89
2023/12/18 10:25:43;;;;;;;4.55;1.73;;;14.00;71.20;;;;;;5010151;28;20044;-88
2023/12/18 10:28:09;;;;;;;5.75;1.50;;;14.00;71.10;;;;;;5050047;28;20056;-89
2023/12/18 10:30:35;;;;;;;5.72;1.45;;;14.00;71.00;;;;;;5034136;28;20053;-90
2023/12/18 10:33:06;;;;;;;5.07;1.42;;;14.00;71.00;;;;;;5032311;28;20237;-88
2023/12/18 10:35:33;;;;;;;3.58;1.17;;;14.00;70.90;;;;;;5043119;28;20040;-88
2023/12/18 10:38:00;;;;;;;4.72;1.25;;;14.00;70.80;;;;;;5022426;28;20763;-89
2023/12/18 10:40:28;;;;;;;8.05;2.00;;;14.00;70.70;;;;;;5014875;28;20029;-89
2023/12/18 10:43:25;;;;;;;6.25;1.80;;;14.00;70.60;;;;;;5040416;28;20037;-88
2023/12/18 10:45:52;;;;;;;4.95;1.38;;;14.10;70.60;;;;;;5025134;28;20047;-88
2023/12/18 10:48:20;;;;;;;2.80;1.65;;;14.10;70.50;;;;;;5026466;28;20034;-87
2023/12/18 10:50:50;;;;;;;3.42;1.20;;;14.10;70.40;;;;;;5003665;28;20033;-89
2023/12/18 10:53:18;;;;;;;4.10;1.23;;;14.20;70.40;;;;;;5055686;28;20029;-91
2023/12/18 10:55:48;;;;;;;4.47;1.35;;;14.20;70.30;;;;;;5027572;28;20055;-88
2023/12/18 10:58:17;;;;;;;5.53;1.23;;;14.20;70.00;;;;;;5048575;28;20059;-89
2023/12/18 11:00:44;;;;;;;7.97;1.40;;;14.20;69.90;;;;;;5024620;28;20728;-88
2023/12/18 11:03:12;;;;;;;3.30;1.42;;;14.30;70.00;;;;;;5020180;28;20059;-87
2023/12/18 11:05:40;;;;;;;2.65;1.15;;;14.30;69.80;;;;;;5034510;28;20051;-88
2023/12/18 11:08:06;;;;;;;6.07;1.50;;;14.30;69.70;;;;;;5031625;28;20790;-88
2023/12/18 11:10:33;;;;;;;4.30;1.23;;;14.30;69.50;;;;;;5005526;28;20033;-89
2023/12/18 11:13:20;;;;;;;3.83;1.10;;;14.40;69.50;;;;;;5014202;28;20068;-88
2023/12/18 11:16:16;;;;;;;5.93;1.33;;;14.40;69.30;;;;;;5033199;28;20535;-86
2023/12/18 11:18:50;;;;;;;5.43;1.23;;;14.40;69.10;;;;;;5048236;28;20039;-90
2023/12/18 11:21:16;;;;;;;6.55;1.65;;;14.50;69.20;;;;;;5043873;28;20021;-89
2023/12/18 11:23:41;;;;;;;6.30;1.50;;;14.50;69.10;;;;;;5024861;28;20040;-88
2023/12/18 11:26:10;;;;;;;5.20;1.25;;;14.50;69.00;;;;;;5037666;28;20040;-89
2023/12/18 11:28:38;;;;;;;5.50;1.92;;;14.50;68.90;;;;;;5033887;28;20033;-87
2023/12/18 11:31:08;;;;;;;4.45;1.40;;;14.60;69.00;;;;;;5029059;28;20033;-87
2023/12/18 11:33:34;;;;;;;6.38;1.63;;;14.60;68.90;;;;;;5013182;28;20117;-87
2023/12/18 11:36:02;;;;;;;6.60;1.20;;;14.60;68.80;;;;;;5026294;28;20324;-87
2023/12/18 11:38:32;;;;;;;3.22;1.25;;;14.60;68.70;;;;;;5048405;28;20037;-87
2023/12/18 11:41:00;;;;;;;5.60;1.23;;;14.70;68.80;;;;;;5031813;28;20099;-88
2023/12/18 11:43:41;;;;;;;4.57;1.35;;;14.70;68.70;;;;;;5044904;28;20124;-87
2023/12/18 11:46:13;;;;;;;4.13;1.48;;;14.70;68.70;;;;;;5031828;28;20041;-87
2023/12/18 11:48:42;;;;;;;3.20;1.27;;;14.60;68.50;;;;;;4995992;28;20073;-87
2023/12/18 11:51:10;;;;;;;3.30;1.45;;;14.60;68.50;;;;;;5029093;28;20043;-86
2023/12/18 11:53:36;;;;;;;5.43;1.33;;;14.70;68.70;;;;;;5032549;28;20021;-88
2023/12/18 11:56:09;;;;;;;6.82;2.35;;;14.60;68.50;;;;;;5037487;28;20045;-85
2023/12/18 11:58:37;;;;;;;2.38;1.05;;;14.70;68.50;;;;;;5047220;28;20041;-87
2023/12/18 12:01:03;;;;;;;5.25;1.20;;;14.70;68.50;;;;;;5036554;28;20469;-85
2023/12/18 12:03:33;;;;;;;5.53;1.40;;;14.70;68.50;;;;;;5039374;28;20029;-84
2023/12/18 12:06:01;;;;;;;3.55;1.15;;;14.60;68.30;;;;;;5037085;28;20477;-83
2023/12/18 12:08:27;;;;;;;5.20;1.50;;;14.60;68.30;;;;;;5036725;28;20029;-86
2023/12/18 12:10:56;;;;;;;5.30;2.15;;;14.60;68.30;;;;;;5026731;28;20181;-87
2023/12/18 12:13:25;;;;;;;6.95;1.50;;;14.60;68.30;;;;;;5018636;28;20064;-87
2023/12/18 12:16:00;;;;;;;6.00;1.73;;;14.60;68.30;;;;;;5042592;28;20103;-84
2023/12/18 12:18:32;;;;;;;6.03;1.80;;;14.70;68.50;;;;;;5049594;28;20404;-83
2023/12/18 12:20:58;;;;;;;6.35;1.90;;;14.60;68.30;;;;;;5022195;28;20076;-84
2023/12/18 12:23:26;;;;;;;7.57;2.13;;;14.60;68.30;;;;;;5047951;28;20028;-88
2023/12/18 12:26:00;;;;;;;6.70;1.55;;;14.70;68.40;;;;;;5033596;28;20076;-87
2023/12/18 12:28:29;;;;;;;7.03;1.73;;;14.70;68.40;;;;;;5041296;28;20133;-87
2023/12/18 12:30:55;;;;;;;3.60;1.38;;;14.60;68.20;;;;;;5025734;28;20282;-88
2023/12/18 12:33:22;;;;;;;5.03;1.65;;;14.70;68.90;;;;;;5010700;28;20057;-87
2023/12/18 12:35:51;;;;;;;6.82;1.73;;;14.70;68.40;;;;;;5037290;28;20457;-89
2023/12/18 12:38:18;;;;;;;6.25;1.70;;;14.70;68.40;;;;;;5051968;28;20524;-86
2023/12/18 12:40:46;;;;;;;6.35;1.42;;;14.70;68.30;;;;;;5033597;28;20040;-84
2023/12/18 12:43:15;;;;;;;6.13;1.50;;;14.70;68.30;;;;;;5038269;28;20025;-85
2023/12/18 12:45:45;;;;;;;3.67;1.45;;;14.70;68.30;;;;;;5029862;28;20064;-87